sensor_id;sensor_type;location;lat;lon;timestamp;P1;durP1;ratioP1;P2;durP2;ratioP2
13319;SDS011;59599;47.608;12.190;2024-01-11T05:01:36;13.77;;;9.07;;
13319;SDS011;59599;47.608;12.190;2024-01-11T05:04:02;13.27;;;9.63;;
13319;SDS011;59599;47.608;12.190;2024-01-11T05:06:28;14.70;;;9.73;;
13319;SDS011;59599;47.608;12.190;2024-01-11T05:08:55;11.70;;;8.77;;
13319;SDS011;59599;47.608;12.190;2024-01-11T05:11:21;11.90;;;7.97;;
13319;SDS011;59599;47.608;12.190;2024-01-11T05:13:49;14.83;;;9.90;;
13319;SDS011;59599;47.608;12.190;2024-01-11T05:16:19;12.60;;;8.70;;
13319;SDS011;59599;47.608;12.190;2024-01-11T05:18:45;14.00;;;7.97;;
13319;SDS011;59599;47.608;12.190;2024-01-11T05:21:11;15.03;;;9.37;;
13319;SDS011;59599;47.608;12.190;2024-01-11T05:23:37;11.33;;;8.00;;
13319;SDS011;59599;47.608;12.190;2024-01-11T05:26:02;11.97;;;7.90;;
13319;SDS011;59599;47.608;12.190;2024-01-11T05:28:28;11.87;;;8.33;;
13319;SDS011;59599;47.608;12.190;2024-01-11T05:30:54;11.80;;;8.20;;
13319;SDS011;59599;47.608;12.190;2024-01-11T05:33:20;12.23;;;7.80;;
13319;SDS011;59599;47.608;12.190;2024-01-11T05:35:46;12.20;;;8.20;;
13319;SDS011;59599;47.608;12.190;2024-01-11T05:38:12;12.23;;;7.83;;
13319;SDS011;59599;47.608;12.190;2024-01-11T05:40:38;11.73;;;8.80;;
13319;SDS011;59599;47.608;12.190;2024-01-11T05:43:04;15.33;;;8.97;;
13319;SDS011;59599;47.608;12.190;2024-01-11T05:45:30;13.10;;;8.40;;
13319;SDS011;59599;47.608;12.190;2024-01-11T05:47:55;13.27;;;8.40;;
13319;SDS011;59599;47.608;12.190;2024-01-11T05:50:21;13.83;;;8.97;;
13319;SDS011;59599;47.608;12.190;2024-01-11T05:52:47;13.57;;;8.53;;
13319;SDS011;59599;47.608;12.190;2024-01-11T05:55:13;12.03;;;7.97;;
13319;SDS011;59599;47.608;12.190;2024-01-11T05:57:39;13.10;;;8.53;;
13319;SDS011;59599;47.608;12.190;2024-01-11T06:00:05;13.27;;;8.40;;
13319;SDS011;59599;47.608;12.190;2024-01-11T06:02:31;11.73;;;8.50;;
13319;SDS011;59599;47.608;12.190;2024-01-11T06:04:57;13.43;;;8.80;;
13319;SDS011;59599;47.608;12.190;2024-01-11T06:07:23;14.87;;;9.30;;
13319;SDS011;59599;47.608;12.190;2024-01-11T06:09:49;12.30;;;8.50;;
13319;SDS011;59599;47.608;12.190;2024-01-11T06:12:15;11.63;;;8.47;;
13319;SDS011;59599;47.608;12.190;2024-01-11T06:14:40;13.93;;;8.90;;
13319;SDS011;59599;47.608;12.190;2024-01-11T06:17:06;12.60;;;8.87;;
13319;SDS011;59599;47.608;12.190;2024-01-11T06:19:32;13.60;;;8.80;;
13319;SDS011;59599;47.608;12.190;2024-01-11T06:21:58;11.37;;;8.67;;
13319;SDS011;59599;47.608;12.190;2024-01-11T06:24:24;12.10;;;8.43;;
13319;SDS011;59599;47.608;12.190;2024-01-11T06:26:50;12.87;;;8.33;;
13319;SDS011;59599;47.608;12.190;2024-01-11T06:29:16;13.00;;;8.60;;
13319;SDS011;59599;47.608;12.190;2024-01-11T06:31:42;13.27;;;8.60;;
13319;SDS011;59599;47.608;12.190;2024-01-11T06:34:07;14.60;;;8.63;;
13319;SDS011;59599;47.608;12.190;2024-01-11T06:36:33;13.07;;;9.30;;
13319;SDS011;59599;47.608;12.190;2024-01-11T06:38:59;13.30;;;8.60;;
13319;SDS011;59599;47.608;12.190;2024-01-11T06:41:26;12.97;;;8.23;;
13319;SDS011;59599;47.608;12.190;2024-01-11T06:43:52;10.87;;;8.97;;
13319;SDS011;59599;47.608;12.190;2024-01-11T06:46:21;11.83;;;8.07;;
13319;SDS011;59599;47.608;12.190;2024-01-11T06:48:47;13.23;;;9.07;;
13319;SDS011;59599;47.608;12.190;2024-01-11T06:51:14;12.20;;;8.33;;
13319;SDS011;59599;47.608;12.190;2024-01-11T06:53:41;12.73;;;9.37;;
13319;SDS011;59599;47.608;12.190;2024-01-11T06:56:14;12.63;;;9.33;;
13319;SDS011;59599;47.608;12.190;2024-01-11T06:58:43;12.23;;;9.50;;
13319;SDS011;59599;47.608;12.190;2024-01-11T07:01:10;14.47;;;8.83;;
13319;SDS011;59599;47.608;12.190;2024-01-11T07:03:36;12.93;;;8.67;;
13319;SDS011;59599;47.608;12.190;2024-01-11T07:06:02;13.90;;;9.23;;
13319;SDS011;59599;47.608;12.190;2024-01-11T07:08:28;12.37;;;8.73;;
13319;SDS011;59599;47.608;12.190;2024-01-11T07:10:54;13.27;;;9.17;;
13319;SDS011;59599;47.608;12.190;2024-01-11T07:13:20;13.53;;;9.20;;
13319;SDS011;59599;47.608;12.190;2024-01-11T07:15:46;11.43;;;8.37;;
13319;SDS011;59599;47.608;12.190;2024-01-11T07:18:13;17.20;;;10.70;;
13319;SDS011;59599;47.608;12.190;2024-01-11T07:20:39;11.73;;;7.63;;
13319;SDS011;59599;47.608;12.190;2024-01-11T07:23:05;18.33;;;9.87;;
13319;SDS011;59599;47.608;12.190;2024-01-11T07:25:32;12.83;;;8.73;;
13319;SDS011;59599;47.608;12.190;2024-01-11T07:27:59;15.00;;;9.80;;
13319;SDS011;59599;47.608;12.190;2024-01-11T07:30:25;12.33;;;8.80;;
13319;SDS011;59599;47.608;12.190;2024-01-11T07:32:51;13.90;;;9.50;;
13319;SDS011;59599;47.608;12.190;2024-01-11T07:35:17;18.40;;;9.63;;
13319;SDS011;59599;47.608;12.190;2024-01-11T07:37:43;12.03;;;9.63;;
13319;SDS011;59599;47.608;12.190;2024-01-11T07:40:09;11.07;;;8.97;;
13319;SDS011;59599;47.608;12.190;2024-01-11T07:42:39;13.23;;;9.47;;
13319;SDS011;59599;47.608;12.190;2024-01-11T07:45:09;13.40;;;9.60;;
13319;SDS011;59599;47.608;12.190;2024-01-11T07:47:39;12.93;;;9.93;;
13319;SDS011;59599;47.608;12.190;2024-01-11T07:50:05;12.73;;;8.63;;
13319;SDS011;59599;47.608;12.190;2024-01-11T07:52:31;11.00;;;8.10;;
13319;SDS011;59599;47.608;12.190;2024-01-11T07:54:57;13.43;;;9.17;;
13319;SDS011;59599;47.608;12.190;2024-01-11T07:57:31;10.43;;;8.23;;
13319;SDS011;59599;47.608;12.190;2024-01-11T07:59:57;13.40;;;8.80;;
13319;SDS011;59599;47.608;12.190;2024-01-11T08:02:24;10.70;;;8.47;;
13319;SDS011;59599;47.608;12.190;2024-01-11T08:04:50;11.60;;;8.77;;
13319;SDS011;59599;47.608;12.190;2024-01-11T08:07:16;9.97;;;8.03;;
13319;SDS011;59599;47.608;12.190;2024-01-11T08:09:41;11.17;;;8.53;;
13319;SDS011;59599;47.608;12.190;2024-01-11T08:12:10;10.70;;;8.03;;
13319;SDS011;59599;47.608;12.190;2024-01-11T08:14:36;11.60;;;8.30;;
13319;SDS011;59599;47.608;12.190;2024-01-11T08:17:02;11.60;;;8.10;;
13319;SDS011;59599;47.608;12.190;2024-01-11T08:19:29;11.67;;;8.63;;
13319;SDS011;59599;47.608;12.190;2024-01-11T08:21:55;13.87;;;9.70;;
13319;SDS011;59599;47.608;12.190;2024-01-11T08:24:22;14.70;;;9.17;;
13319;SDS011;59599;47.608;12.190;2024-01-11T08:26:48;15.50;;;9.27;;
13319;SDS011;59599;47.608;12.190;2024-01-11T08:29:14;14.20;;;9.93;;
13319;SDS011;59599;47.608;12.190;2024-01-11T08:31:40;15.93;;;9.83;;
13319;SDS011;59599;47.608;12.190;2024-01-11T08:34:08;15.17;;;10.73;;
13319;SDS011;59599;47.608;12.190;2024-01-11T08:36:35;14.20;;;9.90;;
13319;SDS011;59599;47.608;12.190;2024-01-11T08:39:02;12.23;;;9.47;;
13319;SDS011;59599;47.608;12.190;2024-01-11T08:41:30;15.20;;;9.20;;
13319;SDS011;59599;47.608;12.190;2024-01-11T08:43:56;15.00;;;9.47;;
13319;SDS011;59599;47.608;12.190;2024-01-11T08:46:23;12.07;;;8.87;;
13319;SDS011;59599;47.608;12.190;2024-01-11T08:49:00;13.87;;;9.90;;
13319;SDS011;59599;47.608;12.190;2024-01-11T08:51:30;11.13;;;8.27;;
13319;SDS011;59599;47.608;12.190;2024-01-11T08:54:00;11.87;;;8.67;;
13319;SDS011;59599;47.608;12.190;2024-01-11T08:56:26;11.40;;;9.27;;
13319;SDS011;59599;47.608;12.190;2024-01-11T08:58:53;13.40;;;9.13;;
13319;SDS011;59599;47.608;12.190;2024-01-11T09:01:19;12.03;;;9.00;;
13319;SDS011;59599;47.608;12.190;2024-01-11T09:03:45;10.90;;;8.40;;
13319;SDS011;59599;47.608;12.190;2024-01-11T09:06:13;13.63;;;8.77;;
13319;SDS011;59599;47.608;12.190;2024-01-11T09:08:39;10.20;;;8.17;;
13319;SDS011;59599;47.608;12.190;2024-01-11T09:11:15;11.37;;;8.27;;
13319;SDS011;59599;47.608;12.190;2024-01-11T09:13:41;12.63;;;8.30;;
13319;SDS011;59599;47.608;12.190;2024-01-11T09:16:08;12.87;;;8.93;;
13319;SDS011;59599;47.608;12.190;2024-01-11T09:18:34;10.43;;;7.93;;
13319;SDS011;59599;47.608;12.190;2024-01-11T09:21:00;12.83;;;8.70;;
13319;SDS011;59599;47.608;12.190;2024-01-11T09:23:26;13.60;;;8.97;;
13319;SDS011;59599;47.608;12.190;2024-01-11T09:25:51;15.20;;;9.53;;
13319;SDS011;59599;47.608;12.190;2024-01-11T09:28:17;13.57;;;8.77;;
13319;SDS011;59599;47.608;12.190;2024-01-11T09:30:43;11.77;;;8.37;;
13319;SDS011;59599;47.608;12.190;2024-01-11T09:33:09;11.50;;;8.63;;
13319;SDS011;59599;47.608;12.190;2024-01-11T09:35:35;12.97;;;8.83;;
13319;SDS011;59599;47.608;12.190;2024-01-11T09:38:01;11.23;;;8.43;;
13319;SDS011;59599;47.608;12.190;2024-01-11T09:40:26;10.50;;;7.50;;
13319;SDS011;59599;47.608;12.190;2024-01-11T09:42:52;21.63;;;10.13;;
13319;SDS011;59599;47.608;12.190;2024-01-11T09:45:18;12.93;;;8.77;;
13319;SDS011;59599;47.608;12.190;2024-01-11T09:47:44;13.47;;;9.17;;
13319;SDS011;59599;47.608;12.190;2024-01-11T09:50:15;13.27;;;9.40;;
13319;SDS011;59599;47.608;12.190;2024-01-11T09:52:48;12.93;;;8.40;;
13319;SDS011;59599;47.608;12.190;2024-01-11T09:55:14;16.90;;;11.30;;
13319;SDS011;59599;47.608;12.190;2024-01-11T09:57:43;15.40;;;9.73;;
13319;SDS011;59599;47.608;12.190;2024-01-11T10:00:13;11.60;;;8.30;;
13319;SDS011;59599;47.608;12.190;2024-01-11T10:02:41;14.17;;;8.63;;
13319;SDS011;59599;47.608;12.190;2024-01-11T10:05:07;13.13;;;8.77;;
13319;SDS011;59599;47.608;12.190;2024-01-11T10:07:33;14.13;;;10.00;;
13319;SDS011;59599;47.608;12.190;2024-01-11T10:09:59;14.20;;;9.43;;
13319;SDS011;59599;47.608;12.190;2024-01-11T10:12:26;12.07;;;8.40;;
13319;SDS011;59599;47.608;12.190;2024-01-11T10:14:52;13.10;;;9.30;;
13319;SDS011;59599;47.608;12.190;2024-01-11T10:17:18;9.93;;;7.27;;
13319;SDS011;59599;47.608;12.190;2024-01-11T10:19:44;11.30;;;7.97;;
13319;SDS011;59599;47.608;12.190;2024-01-11T10:22:11;13.90;;;9.40;;
13319;SDS011;59599;47.608;12.190;2024-01-11T10:24:42;14.73;;;10.10;;
13319;SDS011;59599;47.608;12.190;2024-01-11T10:27:08;15.67;;;10.73;;
13319;SDS011;59599;47.608;12.190;2024-01-11T10:29:34;13.80;;;9.97;;
13319;SDS011;59599;47.608;12.190;2024-01-11T10:32:04;16.83;;;9.53;;
13319;SDS011;59599;47.608;12.190;2024-01-11T10:34:29;14.50;;;10.10;;
13319;SDS011;59599;47.608;12.190;2024-01-11T10:36:55;15.77;;;10.43;;
13319;SDS011;59599;47.608;12.190;2024-01-11T10:39:25;12.77;;;9.77;;
13319;SDS011;59599;47.608;12.190;2024-01-11T10:41:52;13.80;;;9.70;;
13319;SDS011;59599;47.608;12.190;2024-01-11T10:44:29;14.37;;;10.00;;
13319;SDS011;59599;47.608;12.190;2024-01-11T10:46:59;13.83;;;9.97;;
13319;SDS011;59599;47.608;12.190;2024-01-11T10:49:25;13.23;;;9.33;;
13319;SDS011;59599;47.608;12.190;2024-01-11T10:52:02;14.50;;;10.40;;
13319;SDS011;59599;47.608;12.190;2024-01-11T10:54:31;13.33;;;9.73;;
13319;SDS011;59599;47.608;12.190;2024-01-11T10:57:00;15.57;;;9.37;;
13319;SDS011;59599;47.608;12.190;2024-01-11T10:59:26;14.23;;;9.80;;
13319;SDS011;59599;47.608;12.190;2024-01-11T11:01:55;13.10;;;9.43;;
13319;SDS011;59599;47.608;12.190;2024-01-11T11:04:23;12.77;;;9.63;;
13319;SDS011;59599;47.608;12.190;2024-01-11T11:06:50;15.43;;;10.63;;
13319;SDS011;59599;47.608;12.190;2024-01-11T11:09:17;19.67;;;10.77;;
13319;SDS011;59599;47.608;12.190;2024-01-11T11:11:43;12.53;;;9.37;;
13319;SDS011;59599;47.608;12.190;2024-01-11T11:14:10;16.33;;;12.07;;
13319;SDS011;59599;47.608;12.190;2024-01-11T11:16:37;14.93;;;10.80;;
13319;SDS011;59599;47.608;12.190;2024-01-11T11:19:03;15.13;;;10.37;;
13319;SDS011;59599;47.608;12.190;2024-01-11T11:21:29;15.43;;;10.87;;
13319;SDS011;59599;47.608;12.190;2024-01-11T11:23:55;14.83;;;10.40;;
13319;SDS011;59599;47.608;12.190;2024-01-11T11:26:21;16.03;;;9.90;;
13319;SDS011;59599;47.608;12.190;2024-01-11T11:28:47;13.93;;;10.43;;
13319;SDS011;59599;47.608;12.190;2024-01-11T11:31:13;14.03;;;10.80;;
13319;SDS011;59599;47.608;12.190;2024-01-11T11:34:11;16.17;;;10.20;;
13319;SDS011;59599;47.608;12.190;2024-01-11T11:36:39;14.90;;;11.10;;
13319;SDS011;59599;47.608;12.190;2024-01-11T11:39:06;19.13;;;11.73;;
13319;SDS011;59599;47.608;12.190;2024-01-11T11:41:36;13.77;;;9.90;;
13319;SDS011;59599;47.608;12.190;2024-01-11T11:44:04;15.73;;;10.50;;
13319;SDS011;59599;47.608;12.190;2024-01-11T11:46:31;13.97;;;10.83;;
13319;SDS011;59599;47.608;12.190;2024-01-11T11:48:58;14.53;;;10.17;;
13319;SDS011;59599;47.608;12.190;2024-01-11T11:51:25;16.73;;;11.37;;
13319;SDS011;59599;47.608;12.190;2024-01-11T11:53:51;15.90;;;11.03;;
13319;SDS011;59599;47.608;12.190;2024-01-11T11:56:18;13.47;;;10.10;;
13319;SDS011;59599;47.608;12.190;2024-01-11T11:58:45;14.17;;;10.17;;
13319;SDS011;59599;47.608;12.190;2024-01-11T12:01:13;12.43;;;9.57;;
13319;SDS011;59599;47.608;12.190;2024-01-11T12:03:40;14.30;;;9.83;;
13319;SDS011;59599;47.608;12.190;2024-01-11T12:06:10;13.77;;;9.80;;
13319;SDS011;59599;47.608;12.190;2024-01-11T12:08:35;13.93;;;10.53;;
13319;SDS011;59599;47.608;12.190;2024-01-11T12:11:02;15.20;;;9.93;;
13319;SDS011;59599;47.608;12.190;2024-01-11T12:13:28;12.57;;;9.70;;
13319;SDS011;59599;47.608;12.190;2024-01-11T12:15:56;11.93;;;8.90;;
13319;SDS011;59599;47.608;12.190;2024-01-11T12:18:21;14.15;;;10.55;;
13319;SDS011;59599;47.608;12.190;2024-01-11T12:20:47;16.13;;;10.30;;
13319;SDS011;59599;47.608;12.190;2024-01-11T12:23:12;11.97;;;9.53;;
13319;SDS011;59599;47.608;12.190;2024-01-11T12:25:40;12.00;;;9.77;;
13319;SDS011;59599;47.608;12.190;2024-01-11T12:28:05;14.80;;;10.67;;
13319;SDS011;59599;47.608;12.190;2024-01-11T12:30:32;15.57;;;10.90;;
13319;SDS011;59599;47.608;12.190;2024-01-11T12:32:58;18.47;;;9.90;;
13319;SDS011;59599;47.608;12.190;2024-01-11T12:35:26;16.13;;;10.33;;
13319;SDS011;59599;47.608;12.190;2024-01-11T12:37:56;15.17;;;11.27;;
13319;SDS011;59599;47.608;12.190;2024-01-11T12:40:24;24.63;;;13.43;;
13319;SDS011;59599;47.608;12.190;2024-01-11T12:42:52;20.20;;;12.47;;
13319;SDS011;59599;47.608;12.190;2024-01-11T12:45:18;16.20;;;10.47;;
13319;SDS011;59599;47.608;12.190;2024-01-11T12:47:44;20.80;;;13.57;;
13319;SDS011;59599;47.608;12.190;2024-01-11T12:50:10;31.17;;;17.50;;
13319;SDS011;59599;47.608;12.190;2024-01-11T12:52:37;38.00;;;21.20;;
13319;SDS011;59599;47.608;12.190;2024-01-11T12:55:03;36.30;;;20.80;;
13319;SDS011;59599;47.608;12.190;2024-01-11T12:57:29;40.20;;;20.43;;
13319;SDS011;59599;47.608;12.190;2024-01-11T12:59:55;48.27;;;22.73;;
13319;SDS011;59599;47.608;12.190;2024-01-11T13:02:41;43.27;;;23.00;;
13319;SDS011;59599;47.608;12.190;2024-01-11T13:05:11;45.03;;;23.37;;
13319;SDS011;59599;47.608;12.190;2024-01-11T13:07:37;45.77;;;23.17;;
13319;SDS011;59599;47.608;12.190;2024-01-11T13:10:03;45.17;;;23.10;;
13319;SDS011;59599;47.608;12.190;2024-01-11T13:12:29;46.27;;;22.30;;
13319;SDS011;59599;47.608;12.190;2024-01-11T13:14:56;45.60;;;23.07;;
13319;SDS011;59599;47.608;12.190;2024-01-11T13:17:22;45.80;;;23.63;;
13319;SDS011;59599;47.608;12.190;2024-01-11T13:19:47;41.73;;;22.73;;
13319;SDS011;59599;47.608;12.190;2024-01-11T13:22:13;42.73;;;22.63;;
13319;SDS011;59599;47.608;12.190;2024-01-11T13:24:39;53.33;;;25.17;;
13319;SDS011;59599;47.608;12.190;2024-01-11T13:27:05;38.40;;;21.97;;
13319;SDS011;59599;47.608;12.190;2024-01-11T13:29:31;45.63;;;23.17;;
13319;SDS011;59599;47.608;12.190;2024-01-11T13:31:57;42.33;;;23.53;;
13319;SDS011;59599;47.608;12.190;2024-01-11T13:34:23;39.67;;;21.27;;
13319;SDS011;59599;47.608;12.190;2024-01-11T13:36:49;45.23;;;22.13;;
13319;SDS011;59599;47.608;12.190;2024-01-11T13:39:15;38.07;;;20.43;;
13319;SDS011;59599;47.608;12.190;2024-01-11T13:41:43;30.27;;;17.83;;
13319;SDS011;59599;47.608;12.190;2024-01-11T13:44:09;33.70;;;17.67;;
13319;SDS011;59599;47.608;12.190;2024-01-11T13:46:36;44.07;;;21.03;;
13319;SDS011;59599;47.608;12.190;2024-01-11T13:49:02;43.90;;;20.80;;
13319;SDS011;59599;47.608;12.190;2024-01-11T13:51:29;41.07;;;21.80;;
13319;SDS011;59599;47.608;12.190;2024-01-11T13:53:57;45.23;;;23.03;;
13319;SDS011;59599;47.608;12.190;2024-01-11T13:56:24;38.33;;;21.30;;
13319;SDS011;59599;47.608;12.190;2024-01-11T13:58:49;37.97;;;21.70;;
13319;SDS011;59599;47.608;12.190;2024-01-11T14:01:15;42.43;;;22.13;;
13319;SDS011;59599;47.608;12.190;2024-01-11T14:03:41;41.47;;;21.80;;
13319;SDS011;59599;47.608;12.190;2024-01-11T14:06:06;40.77;;;23.00;;
13319;SDS011;59599;47.608;12.190;2024-01-11T14:08:32;40.87;;;21.53;;
13319;SDS011;59599;47.608;12.190;2024-01-11T14:10:58;37.50;;;21.53;;
13319;SDS011;59599;47.608;12.190;2024-01-11T14:13:24;32.73;;;20.03;;
13319;SDS011;59599;47.608;12.190;2024-01-11T14:15:50;28.70;;;18.20;;
13319;SDS011;59599;47.608;12.190;2024-01-11T14:18:16;32.83;;;18.80;;
13319;SDS011;59599;47.608;12.190;2024-01-11T14:20:46;33.37;;;18.93;;
13319;SDS011;59599;47.608;12.190;2024-01-11T14:23:14;31.70;;;18.53;;
13319;SDS011;59599;47.608;12.190;2024-01-11T14:25:40;29.37;;;18.67;;
13319;SDS011;59599;47.608;12.190;2024-01-11T14:28:06;30.87;;;19.23;;
13319;SDS011;59599;47.608;12.190;2024-01-11T14:30:33;33.87;;;18.20;;
13319;SDS011;59599;47.608;12.190;2024-01-11T14:32:59;31.70;;;18.30;;
13319;SDS011;59599;47.608;12.190;2024-01-11T14:35:25;29.47;;;17.40;;
13319;SDS011;59599;47.608;12.190;2024-01-11T14:37:51;31.27;;;19.10;;
13319;SDS011;59599;47.608;12.190;2024-01-11T14:40:17;32.13;;;19.30;;
13319;SDS011;59599;47.608;12.190;2024-01-11T14:42:43;32.03;;;18.83;;
13319;SDS011;59599;47.608;12.190;2024-01-11T14:45:09;30.40;;;18.30;;
13319;SDS011;59599;47.608;12.190;2024-01-11T14:47:35;38.67;;;21.07;;
13319;SDS011;59599;47.608;12.190;2024-01-11T14:50:02;33.63;;;19.07;;
13319;SDS011;59599;47.608;12.190;2024-01-11T14:52:34;30.47;;;18.13;;
13319;SDS011;59599;47.608;12.190;2024-01-11T14:55:00;31.23;;;18.67;;
13319;SDS011;59599;47.608;12.190;2024-01-11T14:57:26;32.73;;;18.50;;
13319;SDS011;59599;47.608;12.190;2024-01-11T14:59:52;37.57;;;21.33;;
13319;SDS011;59599;47.608;12.190;2024-01-11T15:02:18;40.23;;;22.37;;
13319;SDS011;59599;47.608;12.190;2024-01-11T15:04:43;41.00;;;21.83;;
13319;SDS011;59599;47.608;12.190;2024-01-11T15:07:09;48.20;;;24.17;;
13319;SDS011;59599;47.608;12.190;2024-01-11T15:09:35;43.80;;;22.63;;
13319;SDS011;59599;47.608;12.190;2024-01-11T15:12:02;40.93;;;21.83;;
13319;SDS011;59599;47.608;12.190;2024-01-11T15:14:28;39.30;;;19.50;;
13319;SDS011;59599;47.608;12.190;2024-01-11T15:16:53;41.63;;;21.17;;
13319;SDS011;59599;47.608;12.190;2024-01-11T15:19:20;42.33;;;22.03;;
13319;SDS011;59599;47.608;12.190;2024-01-11T15:21:45;37.87;;;19.73;;
13319;SDS011;59599;47.608;12.190;2024-01-11T15:24:11;40.50;;;21.13;;
13319;SDS011;59599;47.608;12.190;2024-01-11T15:26:37;37.63;;;19.57;;
13319;SDS011;59599;47.608;12.190;2024-01-11T15:29:03;37.47;;;20.33;;
13319;SDS011;59599;47.608;12.190;2024-01-11T15:31:29;45.83;;;22.37;;
13319;SDS011;59599;47.608;12.190;2024-01-11T15:33:55;42.60;;;21.67;;
13319;SDS011;59599;47.608;12.190;2024-01-11T15:36:21;39.93;;;21.07;;
13319;SDS011;59599;47.608;12.190;2024-01-11T15:38:47;40.87;;;22.17;;
13319;SDS011;59599;47.608;12.190;2024-01-11T15:41:14;44.07;;;22.30;;
13319;SDS011;59599;47.608;12.190;2024-01-11T15:43:40;46.07;;;22.03;;
13319;SDS011;59599;47.608;12.190;2024-01-11T15:46:07;42.43;;;21.93;;
13319;SDS011;59599;47.608;12.190;2024-01-11T15:48:33;47.70;;;23.13;;
13319;SDS011;59599;47.608;12.190;2024-01-11T15:50:58;52.83;;;24.77;;
13319;SDS011;59599;47.608;12.190;2024-01-11T15:53:25;47.97;;;24.47;;
13319;SDS011;59599;47.608;12.190;2024-01-11T15:55:51;47.33;;;22.50;;
13319;SDS011;59599;47.608;12.190;2024-01-11T15:58:17;46.47;;;23.10;;
13319;SDS011;59599;47.608;12.190;2024-01-11T16:00:43;44.27;;;23.00;;
13319;SDS011;59599;47.608;12.190;2024-01-11T16:03:09;47.63;;;23.67;;
13319;SDS011;59599;47.608;12.190;2024-01-11T16:05:35;41.80;;;22.57;;
13319;SDS011;59599;47.608;12.190;2024-01-11T16:08:01;45.10;;;23.00;;
13319;SDS011;59599;47.608;12.190;2024-01-11T16:10:27;47.90;;;22.77;;
13319;SDS011;59599;47.608;12.190;2024-01-11T16:12:53;41.07;;;21.80;;
13319;SDS011;59599;47.608;12.190;2024-01-11T16:15:19;41.50;;;22.27;;
13319;SDS011;59599;47.608;12.190;2024-01-11T16:17:45;41.30;;;21.60;;
13319;SDS011;59599;47.608;12.190;2024-01-11T16:20:11;38.67;;;20.17;;
13319;SDS011;59599;47.608;12.190;2024-01-11T16:22:37;43.57;;;21.53;;
13319;SDS011;59599;47.608;12.190;2024-01-11T16:25:03;45.13;;;20.93;;
13319;SDS011;59599;47.608;12.190;2024-01-11T16:27:29;40.30;;;19.53;;
13319;SDS011;59599;47.608;12.190;2024-01-11T16:29:55;38.40;;;19.40;;
13319;SDS011;59599;47.608;12.190;2024-01-11T16:32:21;37.10;;;19.73;;
13319;SDS011;59599;47.608;12.190;2024-01-11T16:34:47;41.97;;;21.63;;
13319;SDS011;59599;47.608;12.190;2024-01-11T16:37:14;43.47;;;22.20;;
13319;SDS011;59599;47.608;12.190;2024-01-11T16:39:40;43.13;;;21.27;;
13319;SDS011;59599;47.608;12.190;2024-01-11T16:42:07;44.30;;;22.27;;
13319;SDS011;59599;47.608;12.190;2024-01-11T16:44:36;35.33;;;19.67;;
13319;SDS011;59599;47.608;12.190;2024-01-11T16:47:02;33.53;;;18.63;;
13319;SDS011;59599;47.608;12.190;2024-01-11T16:49:29;41.07;;;21.07;;
13319;SDS011;59599;47.608;12.190;2024-01-11T16:51:54;41.03;;;21.13;;
13319;SDS011;59599;47.608;12.190;2024-01-11T16:54:20;44.73;;;21.50;;
13319;SDS011;59599;47.608;12.190;2024-01-11T16:56:46;42.47;;;22.13;;
13319;SDS011;59599;47.608;12.190;2024-01-11T16:59:12;49.17;;;23.60;;
13319;SDS011;59599;47.608;12.190;2024-01-11T17:01:40;45.90;;;23.23;;
13319;SDS011;59599;47.608;12.190;2024-01-11T17:04:06;51.17;;;22.50;;
13319;SDS011;59599;47.608;12.190;2024-01-11T17:06:35;48.13;;;23.20;;
13319;SDS011;59599;47.608;12.190;2024-01-11T17:09:01;47.67;;;23.30;;
13319;SDS011;59599;47.608;12.190;2024-01-11T17:11:27;41.37;;;21.87;;
13319;SDS011;59599;47.608;12.190;2024-01-11T17:13:54;44.13;;;22.47;;
13319;SDS011;59599;47.608;12.190;2024-01-11T17:16:21;41.23;;;22.30;;
13319;SDS011;59599;47.608;12.190;2024-01-11T17:18:46;44.67;;;20.50;;
13319;SDS011;59599;47.608;12.190;2024-01-11T17:21:12;45.03;;;21.17;;
13319;SDS011;59599;47.608;12.190;2024-01-11T17:23:38;40.93;;;21.10;;
13319;SDS011;59599;47.608;12.190;2024-01-11T17:26:04;43.73;;;21.40;;
13319;SDS011;59599;47.608;12.190;2024-01-11T17:28:31;44.13;;;20.47;;
13319;SDS011;59599;47.608;12.190;2024-01-11T17:30:57;46.97;;;22.17;;
13319;SDS011;59599;47.608;12.190;2024-01-11T17:33:23;43.50;;;21.47;;
13319;SDS011;59599;47.608;12.190;2024-01-11T17:35:49;51.70;;;22.87;;
13319;SDS011;59599;47.608;12.190;2024-01-11T17:38:14;44.53;;;21.60;;
13319;SDS011;59599;47.608;12.190;2024-01-11T17:40:40;43.63;;;21.63;;
13319;SDS011;59599;47.608;12.190;2024-01-11T17:43:06;48.97;;;27.13;;
13319;SDS011;59599;47.608;12.190;2024-01-11T17:45:32;43.57;;;21.53;;
13319;SDS011;59599;47.608;12.190;2024-01-11T17:48:00;41.60;;;22.03;;
13319;SDS011;59599;47.608;12.190;2024-01-11T17:50:26;37.67;;;19.77;;
13319;SDS011;59599;47.608;12.190;2024-01-11T17:52:52;41.83;;;19.70;;
13319;SDS011;59599;47.608;12.190;2024-01-11T17:55:17;34.63;;;19.50;;
13319;SDS011;59599;47.608;12.190;2024-01-11T17:57:43;41.90;;;21.17;;
13319;SDS011;59599;47.608;12.190;2024-01-11T18:00:09;39.83;;;19.67;;
13319;SDS011;59599;47.608;12.190;2024-01-11T18:02:35;35.97;;;18.30;;
13319;SDS011;59599;47.608;12.190;2024-01-11T18:05:01;35.57;;;17.00;;
13319;SDS011;59599;47.608;12.190;2024-01-11T18:07:27;41.43;;;18.73;;
13319;SDS011;59599;47.608;12.190;2024-01-11T18:09:53;39.30;;;19.07;;
13319;SDS011;59599;47.608;12.190;2024-01-11T18:12:19;41.47;;;20.27;;
13319;SDS011;59599;47.608;12.190;2024-01-11T18:14:45;33.20;;;17.73;;
13319;SDS011;59599;47.608;12.190;2024-01-11T18:17:11;36.53;;;19.00;;
13319;SDS011;59599;47.608;12.190;2024-01-11T18:19:40;38.90;;;19.20;;
13319;SDS011;59599;47.608;12.190;2024-01-11T18:22:07;39.80;;;18.50;;
13319;SDS011;59599;47.608;12.190;2024-01-11T18:24:36;39.17;;;18.87;;
13319;SDS011;59599;47.608;12.190;2024-01-11T18:27:01;37.13;;;19.40;;
13319;SDS011;59599;47.608;12.190;2024-01-11T18:29:31;36.30;;;17.60;;
13319;SDS011;59599;47.608;12.190;2024-01-11T18:31:56;37.37;;;19.67;;
13319;SDS011;59599;47.608;12.190;2024-01-11T18:34:22;43.70;;;20.83;;
13319;SDS011;59599;47.608;12.190;2024-01-11T18:36:48;39.70;;;20.07;;
13319;SDS011;59599;47.608;12.190;2024-01-11T18:39:14;37.00;;;19.13;;
13319;SDS011;59599;47.608;12.190;2024-01-11T18:41:40;35.63;;;18.10;;
13319;SDS011;59599;47.608;12.190;2024-01-11T18:44:06;39.97;;;20.20;;
13319;SDS011;59599;47.608;12.190;2024-01-11T18:46:37;39.63;;;20.00;;
13319;SDS011;59599;47.608;12.190;2024-01-11T18:49:03;42.90;;;20.17;;
13319;SDS011;59599;47.608;12.190;2024-01-11T18:51:29;37.40;;;19.13;;
13319;SDS011;59599;47.608;12.190;2024-01-11T18:53:54;37.50;;;18.03;;
13319;SDS011;59599;47.608;12.190;2024-01-11T18:56:20;34.10;;;17.83;;
13319;SDS011;59599;47.608;12.190;2024-01-11T18:58:46;34.93;;;19.27;;
13319;SDS011;59599;47.608;12.190;2024-01-11T19:01:12;34.67;;;19.30;;
13319;SDS011;59599;47.608;12.190;2024-01-11T19:03:38;34.33;;;18.73;;
13319;SDS011;59599;47.608;12.190;2024-01-11T19:06:04;52.47;;;21.97;;
13319;SDS011;59599;47.608;12.190;2024-01-11T19:08:30;39.23;;;19.97;;
13319;SDS011;59599;47.608;12.190;2024-01-11T19:10:57;43.33;;;20.87;;